LZTTLZSL

Guest
Details From LZTT - POPRAD TATRY
To LZSL - SLIAC
Flight Number -
Tags generated
Created
Modified
Stats Distance 52 nm / 96 km
Max Altitude 5,800 ft / 1,768 m
Waypoints 3
Social Downloads 0
Likes 0
Share VATSIM

Download

Looking for another format? Having issues loading an existing format? Contact us
Advertisement - Login to hide

Notes

Basic altitude profile: - Ascent Rate: 2500ft/min - Ascent Speed: 250kts - Cruise Altitude: 12000ft - Cruise Speed: 420kts - Descent Rate: 1500ft/min - Descent Speed: 250kts Options: - Use NATs: yes - Use PACOTS: yes - Use low airways: yes - Use high airways: yes

Route

LZTT EPEDA LZSL

ID Type Via Altitude Latitude Longitude Leg Dist Tot Dist Heading (true) Name
O LZTT APT - 0 ft / 0 m 49.07216˚ 20.24126˚ - 0 nm - POPRAD TATRY
EPEDA FIX - 5,800 ft / 1,768 m 48.87361˚ 19.95722˚ 16 nm 16 nm 223° / 223° -
O LZSL APT - 0 ft / 0 m 48.63784˚ 19.13411˚ 35 nm 51 nm 247° / 246° SLIAC

Altitude Profile

Advertisement - Login to hide

LZTT

Details ICAO LZTT (TAT)
Name POPRAD TATRY
Region Slovakia
Timezone Europe/Bratislava (UTC+1.0)
Stats Elevation 2,355 ft / 718 m (AMSL)
Location 49.072159° 20.241258°
Runways 2
Magnetic Variation 5.171° E

METAR

LZTT 171600Z 27002KT 9999 FEW025 SCT053 M08/M10 Q1016 NOSIG

Decode

TAF

Not found

Departure Runways

ID Width Length Bearing (true) Bearing (mag) Surface Threshold Offset Overrun Length
07 269 ft / 82 m 2,492 ft / 760 m 73.54° 68.37° Grass 0 ft / 0 m 0 ft / 0 m
09 148 ft / 45 m 8,478 ft / 2,584 m 94.19° 89.02° Concrete 0 ft / 0 m 0 ft / 0 m
25 269 ft / 82 m 2,492 ft / 760 m 253.55° 248.38° Grass 0 ft / 0 m 0 ft / 0 m
27 148 ft / 45 m 8,478 ft / 2,584 m 274.21° 269.04° Concrete 0 ft / 0 m 0 ft / 0 m

LZSL

Details ICAO LZSL (SLD)
Name SLIAC
Region Slovakia
Timezone Europe/Bratislava (UTC+1.0)
Stats Elevation 1,043 ft / 318 m (AMSL)
Location 48.637839° 19.134108°
Runways 1
Magnetic Variation 4.875° E

METAR

LZSL 171600Z 00000KT CAVOK M05/M07 Q1018

Decode

TAF

Not found

Destination Runways

ID Width Length Bearing (true) Bearing (mag) Surface Threshold Offset Overrun Length
18 197 ft / 60 m 7,657 ft / 2,334 m 181.94° 177.07° Concrete 0 ft / 0 m 180 ft / 55 m
36 197 ft / 60 m 7,657 ft / 2,334 m 1.93° 357.06° Concrete 0 ft / 0 m 65 ft / 20 m

Approach Navaids

Runway Type Ident Frequency Range Bearing (true) Bearing (mag) Slope Elevation
36 Localiser FS 108.70 MHz 18 nm / 33 km 1.94° 357.07° - 1,042 ft / 318 m (AMSL)
36 Glidescope FS 108.70 MHz 10 nm / 19 km 1.94° 357.06° 3.50° 1,042 ft / 318 m (AMSL)
36 DME FS 108.70 MHz 18 nm / 33 km - - - 1,047 ft / 319 m (AMSL)

Popular Alternatives